createdAt,value
2023-01-26T00:00:28.670Z,1.80
2023-01-26T00:02:59.137Z,1.81
2023-01-26T00:05:35.974Z,1.83
2023-01-26T00:08:08.704Z,1.85
2023-01-26T00:10:39.412Z,1.88
2023-01-26T00:13:13.804Z,1.87
2023-01-26T00:15:54.263Z,1.73
2023-01-26T00:18:24.644Z,1.92
2023-01-26T00:21:06.406Z,1.92
2023-01-26T00:23:39.893Z,1.92
2023-01-26T00:26:15.400Z,1.17
2023-01-26T00:28:44.750Z,1.93
2023-01-26T00:31:18.272Z,1.94
2023-01-26T00:33:50.822Z,1.94
2023-01-26T00:36:21.800Z,1.90
2023-01-26T00:38:50.747Z,1.90
2023-01-26T00:41:36.893Z,1.93
2023-01-26T00:44:06.413Z,1.85
2023-01-26T00:46:42.897Z,1.70
2023-01-26T00:49:17.211Z,1.69
2023-01-26T00:51:55.300Z,1.68
2023-01-26T00:54:32.713Z,1.68
2023-01-26T00:57:04.516Z,1.69
2023-01-26T00:59:38.337Z,1.74
2023-01-26T01:02:13.050Z,1.76
2023-01-26T01:04:46.540Z,1.75
2023-01-26T01:07:17.268Z,1.75
2023-01-26T01:09:55.726Z,1.75
2023-01-26T01:12:50.091Z,1.75
2023-01-26T01:15:29.244Z,1.31
2023-01-26T01:18:00.960Z,1.70
2023-01-26T01:20:35.335Z,1.69
2023-01-26T01:23:10.679Z,1.73
2023-01-26T01:25:41.427Z,1.78
2023-01-26T01:28:13.984Z,1.78
2023-01-26T01:30:46.095Z,1.78
2023-01-26T01:33:17.293Z,1.77
2023-01-26T01:35:59.398Z,0.41
2023-01-26T01:38:28.803Z,1.75
2023-01-26T01:41:00.518Z,1.74
2023-01-26T01:43:30.567Z,1.35
2023-01-26T01:46:16.760Z,1.34
2023-01-26T01:49:01.831Z,0.93
2023-01-26T01:51:42.866Z,0.12
2023-01-26T01:54:24.868Z,0.25
2023-01-26T01:57:02.549Z,1.67
2023-01-26T01:59:34.938Z,1.78
2023-01-26T02:02:04.789Z,1.73
2023-01-26T02:04:36.154Z,1.73
2023-01-26T02:07:13.868Z,1.51
2023-01-26T02:10:03.190Z,1.05
2023-01-26T02:12:44.304Z,0.52
2023-01-26T02:15:17.469Z,1.73
2023-01-26T02:17:48.512Z,1.72
2023-01-26T02:20:28.512Z,1.27
2023-01-26T02:23:11.457Z,-0.70
2023-01-26T02:25:57.748Z,0.61
2023-01-26T02:28:30.545Z,0.97
2023-01-26T02:31:00.073Z,1.67
2023-01-26T02:33:38.008Z,1.39
2023-01-26T02:36:21.543Z,0.87
2023-01-26T02:39:01.349Z,0.43
2023-01-26T02:41:47.716Z,1.66
2023-01-26T02:44:18.682Z,1.67
2023-01-26T02:46:56.535Z,1.19
2023-01-26T02:49:43.018Z,1.72
2023-01-26T02:52:14.750Z,1.20
2023-01-26T02:55:04.502Z,1.70
2023-01-26T02:57:41.057Z,1.69
2023-01-26T03:00:18.760Z,0.83
2023-01-26T03:02:48.591Z,1.70
2023-01-26T03:05:23.370Z,1.72
2023-01-26T03:07:56.454Z,1.69
2023-01-26T03:10:31.158Z,1.64
2023-01-26T03:13:02.460Z,1.63
2023-01-26T03:15:48.156Z,1.60
2023-01-26T03:18:37.930Z,1.59
2023-01-26T03:21:28.932Z,1.60
2023-01-26T03:24:15.050Z,1.40
2023-01-26T03:27:02.299Z,1.26
2023-01-26T03:29:32.582Z,1.46
2023-01-26T03:32:04.447Z,1.62
2023-01-26T03:34:35.162Z,0.46
2023-01-26T03:37:07.089Z,-0.05
2023-01-26T03:40:00.924Z,1.54
2023-01-26T03:42:47.755Z,1.20
2023-01-26T03:45:34.117Z,1.24
2023-01-26T03:48:27.825Z,1.48
2023-01-26T03:51:14.233Z,0.63
2023-01-26T03:54:01.186Z,1.56
2023-01-26T03:56:32.923Z,1.55
2023-01-26T03:59:10.020Z,0.90
2023-01-26T04:02:02.088Z,1.54
2023-01-26T04:04:50.362Z,1.56
2023-01-26T04:07:38.288Z,1.60
2023-01-26T04:10:09.222Z,1.58
2023-01-26T04:12:38.321Z,1.59
2023-01-26T04:15:38.184Z,1.52
2023-01-26T04:18:25.993Z,0.91
2023-01-26T04:21:14.942Z,1.50
2023-01-26T04:23:45.753Z,1.51
2023-01-26T04:26:15.016Z,1.53
2023-01-26T04:28:44.479Z,1.54
2023-01-26T04:31:13.184Z,0.76
2023-01-26T04:33:42.139Z,1.51
2023-01-26T04:36:12.777Z,1.51
2023-01-26T04:38:46.586Z,1.49
2023-01-26T04:41:20.244Z,1.52
2023-01-26T04:44:03.324Z,1.51
2023-01-26T04:46:33.353Z,1.47
2023-01-26T04:49:06.723Z,1.51
2023-01-26T04:51:42.468Z,1.51
2023-01-26T04:54:11.829Z,1.51
2023-01-26T04:56:47.323Z,1.54
2023-01-26T04:59:20.098Z,1.52
2023-01-26T05:01:49.454Z,1.52
2023-01-26T05:04:22.281Z,1.50
2023-01-26T05:06:52.549Z,1.53
2023-01-26T05:09:23.026Z,1.52
2023-01-26T05:12:19.962Z,1.47
2023-01-26T05:15:09.716Z,0.61
2023-01-26T05:18:06.431Z,1.49
2023-01-26T05:20:41.640Z,1.16
2023-01-26T05:23:19.963Z,1.43
2023-01-26T05:25:51.055Z,1.27
2023-01-26T05:28:20.016Z,-0.18
2023-01-26T05:30:49.001Z,1.48
2023-01-26T05:33:22.108Z,1.52
2023-01-26T05:35:52.083Z,1.50
2023-01-26T05:38:23.452Z,1.37
2023-01-26T05:40:52.298Z,1.43
2023-01-26T05:43:20.950Z,1.43
2023-01-26T05:46:10.481Z,1.45
2023-01-26T05:48:43.314Z,1.45
2023-01-26T05:51:11.857Z,1.40
2023-01-26T05:53:42.501Z,0.17
2023-01-26T05:56:11.144Z,1.30
2023-01-26T05:58:44.735Z,1.02
2023-01-26T06:01:13.206Z,0.95
2023-01-26T06:03:51.113Z,0.35
2023-01-26T06:06:20.312Z,1.30
2023-01-26T06:08:54.965Z,1.39
2023-01-26T06:11:46.923Z,1.42
2023-01-26T06:14:31.662Z,1.37
2023-01-26T06:17:01.299Z,1.37
2023-01-26T06:19:29.833Z,0.87
2023-01-26T06:22:01.107Z,1.43
2023-01-26T06:24:32.419Z,1.46
2023-01-26T06:27:01.112Z,1.47
2023-01-26T06:29:29.751Z,1.45
2023-01-26T06:31:58.445Z,1.27
2023-01-26T06:34:27.213Z,1.46
2023-01-26T06:36:56.691Z,1.46
2023-01-26T06:39:32.375Z,1.47
2023-01-26T06:42:02.382Z,1.49
2023-01-26T06:44:30.883Z,1.48
2023-01-26T06:46:59.481Z,1.46
2023-01-26T06:49:28.469Z,1.45
2023-01-26T06:52:04.535Z,1.46
2023-01-26T06:55:02.586Z,1.49
2023-01-26T06:57:49.326Z,1.49
2023-01-26T07:00:36.437Z,1.49
2023-01-26T07:03:25.979Z,1.30
2023-01-26T07:05:57.199Z,1.52
2023-01-26T07:08:25.739Z,1.55
2023-01-26T07:10:55.504Z,1.54
2023-01-26T07:13:23.891Z,1.47
2023-01-26T07:15:52.258Z,1.48
2023-01-26T07:18:20.696Z,1.50
2023-01-26T07:20:51.003Z,1.46
2023-01-26T07:23:19.513Z,1.44
2023-01-26T07:25:47.939Z,1.34
2023-01-26T07:28:17.758Z,1.17
2023-01-26T07:30:46.369Z,1.45
2023-01-26T07:33:20.815Z,1.21
2023-01-26T07:35:58.397Z,1.55
2023-01-26T07:38:28.288Z,1.03
2023-01-26T07:40:58.069Z,1.57
2023-01-26T07:43:28.075Z,1.01
2023-01-26T07:45:56.567Z,1.57
2023-01-26T07:48:26.383Z,0.84
2023-01-26T07:50:54.783Z,1.55
2023-01-26T07:53:23.837Z,1.32
2023-01-26T07:55:52.461Z,1.51
2023-01-26T07:58:21.625Z,0.58
2023-01-26T08:00:51.466Z,1.55
2023-01-26T08:03:19.886Z,1.48
2023-01-26T08:05:48.604Z,1.51
2023-01-26T08:08:17.229Z,1.48
2023-01-26T08:10:47.440Z,1.64
2023-01-26T08:13:23.554Z,1.61
2023-01-26T08:15:56.725Z,1.34
2023-01-26T08:18:25.221Z,1.62
2023-01-26T08:20:57.640Z,1.62
2023-01-26T08:23:28.516Z,0.77
2023-01-26T08:26:01.491Z,1.70
2023-01-26T08:28:31.030Z,1.68
2023-01-26T08:31:05.968Z,1.69
2023-01-26T08:33:36.049Z,1.65
2023-01-26T08:36:05.583Z,1.68
2023-01-26T08:38:36.888Z,0.39
2023-01-26T08:41:10.538Z,0.86
2023-01-26T08:43:41.600Z,1.79
2023-01-26T08:46:12.045Z,1.73
2023-01-26T08:48:40.582Z,1.78
2023-01-26T08:51:10.268Z,1.67
2023-01-26T08:53:39.385Z,1.88
2023-01-26T08:56:13.006Z,1.92
2023-01-26T08:58:42.244Z,1.92
2023-01-26T09:01:16.238Z,1.93
2023-01-26T09:03:45.710Z,1.85
2023-01-26T09:06:15.951Z,1.87
2023-01-26T09:08:44.486Z,1.45
2023-01-26T09:11:13.604Z,1.80
2023-01-26T09:13:42.437Z,1.41
2023-01-26T09:16:20.142Z,1.63
2023-01-26T09:18:51.182Z,1.77
2023-01-26T09:21:20.222Z,1.78
2023-01-26T09:23:48.860Z,1.72
2023-01-26T09:26:17.457Z,1.84
2023-01-26T09:28:45.909Z,1.69
2023-01-26T09:31:15.758Z,1.38
2023-01-26T09:33:45.373Z,1.57
2023-01-26T09:36:13.999Z,1.12
2023-01-26T09:38:42.705Z,1.51
2023-01-26T09:41:36.183Z,1.20
2023-01-26T09:44:11.815Z,0.23
2023-01-26T09:47:01.531Z,1.24
2023-01-26T09:49:47.666Z,1.38
2023-01-26T09:52:27.325Z,1.60
2023-01-26T09:54:59.876Z,1.55
2023-01-26T09:57:37.587Z,1.53
2023-01-26T10:00:11.383Z,1.59
2023-01-26T10:03:00.884Z,1.25
2023-01-26T10:05:42.798Z,1.42
2023-01-26T10:08:14.757Z,1.17
2023-01-26T10:10:50.908Z,1.29
2023-01-26T10:13:22.771Z,0.11
2023-01-26T10:15:59.338Z,0.86
2023-01-26T10:18:38.295Z,1.40
2023-01-26T10:21:10.828Z,0.87
2023-01-26T10:23:49.222Z,1.14
2023-01-26T10:26:20.541Z,1.37
2023-01-26T10:28:52.204Z,1.44
2023-01-26T10:31:24.226Z,1.08
2023-01-26T10:33:58.037Z,0.89
2023-01-26T10:36:30.268Z,1.38
2023-01-26T10:39:06.762Z,1.25
2023-01-26T10:41:36.194Z,1.35
2023-01-26T10:44:25.767Z,1.31
2023-01-26T10:47:07.639Z,1.28
2023-01-26T10:49:38.374Z,1.41
2023-01-26T10:52:15.645Z,1.44
2023-01-26T10:54:44.852Z,1.49
2023-01-26T10:57:29.068Z,1.48
2023-01-26T11:00:01.650Z,0.86
2023-01-26T11:02:32.152Z,1.18
2023-01-26T11:05:21.507Z,1.38
2023-01-26T11:07:55.256Z,0.88
2023-01-26T11:10:29.199Z,1.64
2023-01-26T11:13:18.386Z,1.65
2023-01-26T11:15:53.063Z,1.65
2023-01-26T11:18:33.518Z,1.69
2023-01-26T11:21:11.138Z,1.65
2023-01-26T11:23:53.890Z,1.60
2023-01-26T11:26:52.346Z,1.46
2023-01-26T11:30:07.334Z,1.49
2023-01-26T11:32:51.251Z,1.66
2023-01-26T11:35:33.308Z,1.52
2023-01-26T11:38:23.425Z,1.67
2023-01-26T11:41:09.203Z,1.76
2023-01-26T11:44:12.465Z,1.56
2023-01-26T11:46:59.383Z,1.74
2023-01-26T11:49:58.954Z,1.62
2023-01-26T11:52:43.543Z,1.63
2023-01-26T11:55:39.171Z,1.77
2023-01-26T11:58:28.876Z,1.58
2023-01-26T12:01:01.633Z,1.73
2023-01-26T12:03:41.152Z,1.57
2023-01-26T12:06:19.003Z,1.85
2023-01-26T12:08:56.037Z,1.72
2023-01-26T12:11:34.346Z,1.71
2023-01-26T12:14:19.706Z,1.78
2023-01-26T12:17:27.505Z,1.79
2023-01-26T12:20:06.738Z,1.79
2023-01-26T12:22:39.742Z,1.69
2023-01-26T12:25:31.418Z,1.60
2023-01-26T12:28:14.355Z,1.83
2023-01-26T12:30:53.860Z,1.38
2023-01-26T12:33:22.460Z,1.73
2023-01-26T12:36:17.915Z,1.28
2023-01-26T12:39:09.626Z,1.54
2023-01-26T12:42:00.749Z,1.65
2023-01-26T12:44:39.867Z,1.68
2023-01-26T12:47:19.014Z,1.49
2023-01-26T12:49:58.687Z,1.46
2023-01-26T12:52:35.689Z,1.61
2023-01-26T12:55:16.498Z,1.62
2023-01-26T12:57:55.362Z,1.57
2023-01-26T13:00:30.983Z,1.71
2023-01-26T13:03:06.121Z,1.68
2023-01-26T13:05:37.514Z,1.53
2023-01-26T13:09:06.024Z,1.61
2023-01-26T13:11:48.772Z,1.62
2023-01-26T13:14:39.967Z,1.37
2023-01-26T13:17:50.823Z,1.55
2023-01-26T13:20:52.554Z,1.47
2023-01-26T13:23:43.217Z,1.59
2023-01-26T13:26:50.978Z,1.18
2023-01-26T13:29:36.212Z,1.52
2023-01-26T13:33:03.307Z,1.70
2023-01-26T13:35:34.036Z,1.51
2023-01-26T13:38:15.512Z,1.07
2023-01-26T13:40:49.740Z,1.68
2023-01-26T13:43:28.247Z,1.65
2023-01-26T13:46:25.695Z,1.58
2023-01-26T13:48:57.873Z,1.59
2023-01-26T13:51:34.347Z,1.21
2023-01-26T13:54:15.410Z,1.57
2023-01-26T13:57:06.353Z,1.46
2023-01-26T13:59:35.267Z,1.43
2023-01-26T14:02:04.669Z,1.27
2023-01-26T14:04:35.300Z,1.45
2023-01-26T14:07:10.981Z,1.44
2023-01-26T14:09:49.574Z,1.46
2023-01-26T14:12:25.391Z,1.53
2023-01-26T14:14:58.430Z,0.56
2023-01-26T14:17:49.665Z,1.59
2023-01-26T14:20:30.879Z,1.56
2023-01-26T14:23:13.754Z,1.54
2023-01-26T14:26:42.669Z,1.52
2023-01-26T14:29:19.563Z,1.39
2023-01-26T14:31:52.525Z,0.12
2023-01-26T14:34:26.663Z,1.17
2023-01-26T14:37:19.196Z,1.32
2023-01-26T14:40:10.469Z,1.33
2023-01-26T14:42:41.128Z,1.40
2023-01-26T14:45:14.801Z,-0.14
2023-01-26T14:47:48.414Z,0.36
2023-01-26T14:50:27.170Z,1.26
2023-01-26T14:52:57.905Z,1.16
2023-01-26T14:55:30.370Z,-0.34
2023-01-26T14:58:02.200Z,1.08
2023-01-26T15:00:39.302Z,0.96
2023-01-26T15:03:19.327Z,0.69
2023-01-26T15:05:50.452Z,-1.00
2023-01-26T15:08:26.273Z,1.15
2023-01-26T15:11:16.660Z,1.17
2023-01-26T15:13:47.266Z,1.20
2023-01-26T15:16:19.321Z,0.64
2023-01-26T15:18:59.312Z,1.24
2023-01-26T15:21:34.779Z,1.22
2023-01-26T15:24:06.113Z,1.16
2023-01-26T15:26:38.333Z,1.13
2023-01-26T15:29:23.066Z,1.11
2023-01-26T15:31:56.270Z,1.10
2023-01-26T15:34:34.981Z,1.04
2023-01-26T15:37:25.396Z,1.04
2023-01-26T15:39:55.439Z,1.03
2023-01-26T15:42:27.813Z,1.05
2023-01-26T15:44:56.954Z,1.03
2023-01-26T15:47:25.813Z,1.06
2023-01-26T15:49:54.784Z,1.03
2023-01-26T15:52:31.303Z,0.92
2023-01-26T15:55:01.106Z,0.71
2023-01-26T15:57:31.515Z,1.01
2023-01-26T16:00:00.181Z,1.01
2023-01-26T16:02:32.832Z,0.96
2023-01-26T16:05:02.464Z,0.95
2023-01-26T16:07:30.835Z,0.92
2023-01-26T16:10:01.205Z,0.93
2023-01-26T16:12:32.159Z,0.97
2023-01-26T16:15:01.175Z,0.61
2023-01-26T16:17:29.939Z,0.93
2023-01-26T16:19:58.395Z,0.90
2023-01-26T16:22:26.858Z,0.88
2023-01-26T16:24:55.287Z,0.57
2023-01-26T16:27:25.020Z,0.90
2023-01-26T16:29:53.464Z,0.82
2023-01-26T16:32:29.853Z,0.69
2023-01-26T16:34:58.347Z,0.80
2023-01-26T16:37:26.851Z,0.80
2023-01-26T16:39:55.341Z,0.58
2023-01-26T16:42:25.150Z,0.71
2023-01-26T16:44:53.648Z,0.73
2023-01-26T16:47:22.011Z,0.59
2023-01-26T16:49:50.557Z,0.60
2023-01-26T16:52:18.902Z,0.75
2023-01-26T16:54:48.389Z,0.80
2023-01-26T16:57:16.801Z,0.79
2023-01-26T16:59:46.608Z,0.73
2023-01-26T17:02:26.182Z,0.85
2023-01-26T17:04:54.798Z,0.87
2023-01-26T17:07:23.269Z,0.84
2023-01-26T17:09:51.900Z,0.85
2023-01-26T17:12:20.324Z,0.83
2023-01-26T17:14:50.206Z,0.85
2023-01-26T17:17:19.006Z,0.86
2023-01-26T17:19:47.900Z,0.89
2023-01-26T17:22:16.500Z,0.91
2023-01-26T17:24:44.912Z,0.91
2023-01-26T17:27:13.390Z,0.91
2023-01-26T17:29:42.349Z,0.92
2023-01-26T17:32:12.572Z,0.71
2023-01-26T17:34:42.800Z,0.98
2023-01-26T17:37:11.327Z,0.97
2023-01-26T17:39:39.785Z,1.00
2023-01-26T17:42:08.636Z,0.75
2023-01-26T17:44:37.108Z,1.03
2023-01-26T17:47:05.687Z,1.01
2023-01-26T17:49:35.482Z,0.95
2023-01-26T17:52:04.006Z,1.00
2023-01-26T17:54:33.552Z,0.91
2023-01-26T17:57:02.414Z,0.97
2023-01-26T17:59:30.915Z,0.93
2023-01-26T18:01:59.417Z,0.92
2023-01-26T18:04:29.240Z,1.06
2023-01-26T18:07:01.891Z,1.01
2023-01-26T18:09:30.505Z,0.89
2023-01-26T18:11:59.165Z,0.86
2023-01-26T18:14:27.837Z,0.80
2023-01-26T18:16:56.142Z,0.52
2023-01-26T18:19:24.922Z,0.76
2023-01-26T18:21:53.405Z,0.67
2023-01-26T18:24:23.196Z,0.71
2023-01-26T18:26:51.822Z,0.66
2023-01-26T18:29:20.300Z,0.32
2023-01-26T18:31:49.100Z,0.30
2023-01-26T18:34:17.633Z,0.61
2023-01-26T18:36:46.156Z,0.61
2023-01-26T18:39:16.772Z,0.55
2023-01-26T18:41:47.264Z,0.60
2023-01-26T18:44:16.107Z,0.58
2023-01-26T18:46:44.868Z,0.58
2023-01-26T18:49:15.440Z,0.56
2023-01-26T18:51:47.974Z,0.56
2023-01-26T18:54:17.250Z,0.53
2023-01-26T18:56:47.253Z,0.51
2023-01-26T18:59:16.224Z,0.35
2023-01-26T19:01:44.869Z,0.52
2023-01-26T19:04:13.678Z,0.47
2023-01-26T19:06:42.097Z,0.53
2023-01-26T19:09:11.904Z,0.55
2023-01-26T19:11:46.294Z,0.58
2023-01-26T19:14:27.021Z,0.59
2023-01-26T19:16:57.856Z,0.63
2023-01-26T19:19:27.472Z,0.62
2023-01-26T19:21:55.996Z,0.61
2023-01-26T19:24:26.030Z,0.14
2023-01-26T19:26:54.841Z,0.44
2023-01-26T19:29:25.107Z,0.69
2023-01-26T19:31:53.712Z,0.67
2023-01-26T19:34:22.179Z,0.70
2023-01-26T19:36:50.674Z,0.66
2023-01-26T19:39:19.089Z,0.68
2023-01-26T19:41:47.615Z,0.72
2023-01-26T19:44:15.968Z,0.02
2023-01-26T19:46:45.777Z,0.76
2023-01-26T19:49:15.172Z,0.79
2023-01-26T19:51:43.657Z,0.80
2023-01-26T19:54:13.753Z,0.73
2023-01-26T19:56:42.351Z,0.72
2023-01-26T19:59:13.397Z,0.74
2023-01-26T20:01:41.897Z,0.76
2023-01-26T20:04:16.274Z,0.61
2023-01-26T20:06:44.794Z,0.81
2023-01-26T20:09:13.258Z,0.76
2023-01-26T20:11:41.768Z,0.59
2023-01-26T20:14:12.262Z,0.63
2023-01-26T20:16:41.296Z,0.70
2023-01-26T20:19:12.466Z,0.71
2023-01-26T20:21:41.060Z,0.70
2023-01-26T20:24:13.688Z,0.73
2023-01-26T20:26:44.237Z,0.78
2023-01-26T20:29:15.524Z,0.78
2023-01-26T20:31:45.069Z,0.80
2023-01-26T20:34:15.576Z,0.76
2023-01-26T20:36:44.462Z,0.79
2023-01-26T20:39:17.670Z,-0.47
2023-01-26T20:41:46.815Z,0.70
2023-01-26T20:44:15.718Z,0.56
2023-01-26T20:46:45.242Z,0.70
2023-01-26T20:49:18.576Z,0.48
2023-01-26T20:51:48.095Z,0.37
2023-01-26T20:54:18.688Z,0.63
2023-01-26T20:56:49.105Z,0.65
2023-01-26T20:59:18.362Z,0.62
2023-01-26T21:01:47.415Z,0.59
2023-01-26T21:04:17.682Z,0.57
2023-01-26T21:06:46.638Z,0.59
2023-01-26T21:09:15.448Z,0.58
2023-01-26T21:11:44.537Z,0.64
2023-01-26T21:14:14.296Z,-0.80
2023-01-26T21:16:44.041Z,0.60
2023-01-26T21:19:12.858Z,0.60
2023-01-26T21:21:45.081Z,0.49
2023-01-26T21:24:13.636Z,0.02
2023-01-26T21:26:42.067Z,0.29
2023-01-26T21:29:15.888Z,0.63
2023-01-26T21:31:45.910Z,0.66
2023-01-26T21:34:14.438Z,0.35
2023-01-26T21:36:44.675Z,0.62
2023-01-26T21:39:15.608Z,0.63
2023-01-26T21:41:59.697Z,0.68
2023-01-26T21:44:30.415Z,0.71
2023-01-26T21:47:03.076Z,0.57
2023-01-26T21:49:31.997Z,0.63
2023-01-26T21:52:19.611Z,0.69
2023-01-26T21:54:48.133Z,0.52
2023-01-26T21:57:34.583Z,0.69
2023-01-26T22:00:03.379Z,0.69
2023-01-26T22:02:33.161Z,0.68
2023-01-26T22:05:01.683Z,0.69
2023-01-26T22:07:32.193Z,0.71
2023-01-26T22:10:00.768Z,0.09
2023-01-26T22:12:29.890Z,0.74
2023-01-26T22:14:58.864Z,0.72
2023-01-26T22:17:27.351Z,0.51
2023-01-26T22:19:56.247Z,0.70
2023-01-26T22:22:24.649Z,0.70
2023-01-26T22:24:54.842Z,0.67
2023-01-26T22:27:25.204Z,0.65
2023-01-26T22:29:56.767Z,0.68
2023-01-26T22:32:25.810Z,0.70
2023-01-26T22:34:54.489Z,0.66
2023-01-26T22:37:24.854Z,0.66
2023-01-26T22:39:55.331Z,0.55
2023-01-26T22:42:24.493Z,0.71
2023-01-26T22:44:53.773Z,0.70
2023-01-26T22:47:22.820Z,0.62
2023-01-26T22:49:51.863Z,0.58
2023-01-26T22:52:21.258Z,0.57
2023-01-26T22:54:50.331Z,0.59
2023-01-26T22:57:20.664Z,0.59
2023-01-26T22:59:49.472Z,0.12
2023-01-26T23:02:18.509Z,0.57
2023-01-26T23:04:47.553Z,0.60
2023-01-26T23:07:16.485Z,-0.13
2023-01-26T23:09:45.642Z,0.63
2023-01-26T23:12:20.196Z,0.69
2023-01-26T23:14:49.242Z,0.24
2023-01-26T23:17:18.045Z,0.40
2023-01-26T23:19:53.808Z,0.60
2023-01-26T23:22:24.678Z,0.62
2023-01-26T23:25:18.646Z,0.62
2023-01-26T23:27:51.347Z,0.65
2023-01-26T23:30:22.852Z,0.64
2023-01-26T23:32:53.820Z,0.65
2023-01-26T23:35:26.429Z,0.70
2023-01-26T23:37:55.858Z,0.67
2023-01-26T23:40:30.779Z,0.60
2023-01-26T23:43:16.940Z,0.59
2023-01-26T23:45:59.824Z,-1.46
2023-01-26T23:48:29.141Z,0.56
2023-01-26T23:50:59.355Z,0.57
2023-01-26T23:53:30.714Z,0.44
2023-01-26T23:56:04.390Z,0.53
2023-01-26T23:58:34.871Z,0.53
